< < Back
Terminal Aerodrome Forecast


Current Version              Previous Versions:   1  2  3  4  5  6  7  8  9  

Terminal Aerodrome Forecast

123
FTUS44 KHUN 010520
TAFHSV
TAF
KHSV 010520Z 0106/0206 VRB02KT P6SM FEW070 SCT250
      TEMPO 0108/0112 4SM BR
     FM011500 07005KT P6SM SCT050 SCT250
     FM020100 VRB03KT P6SM SCT070=

Latest METAR

999
SAUS80 KWBC 011600 RRD
MTRHSV
METAR KHSV 011553Z VRB03KT 10SM SCT028 SCT250 29/20 A3014 RMK AO2 SLP200
T02940200


USA.gov is the U.S. government's official web portal to all federal, state and local government web resources and services.